sensor_id;sensor_type;location;lat;lon;timestamp;P1;durP1;ratioP1;P2;durP2;ratioP2
48203;SDS011;33994;50.998;5.864;2024-01-10T00:00:49;19.70;;;8.25;;
48203;SDS011;33994;50.998;5.864;2024-01-10T00:03:54;21.30;;;8.27;;
48203;SDS011;33994;50.998;5.864;2024-01-10T00:06:57;19.60;;;8.15;;
48203;SDS011;33994;50.998;5.864;2024-01-10T00:10:00;19.20;;;8.85;;
48203;SDS011;33994;50.998;5.864;2024-01-10T00:13:05;24.63;;;8.70;;
48203;SDS011;33994;50.998;5.864;2024-01-10T00:16:09;20.27;;;8.80;;
48203;SDS011;33994;50.998;5.864;2024-01-10T00:19:14;18.63;;;8.23;;
48203;SDS011;33994;50.998;5.864;2024-01-10T00:22:17;15.98;;;7.88;;
48203;SDS011;33994;50.998;5.864;2024-01-10T00:25:20;18.70;;;8.30;;
48203;SDS011;33994;50.998;5.864;2024-01-10T00:28:25;19.55;;;7.65;;
48203;SDS011;33994;50.998;5.864;2024-01-10T00:31:28;21.13;;;8.80;;
48203;SDS011;33994;50.998;5.864;2024-01-10T00:34:32;19.35;;;7.43;;
48203;SDS011;33994;50.998;5.864;2024-01-10T00:37:35;20.02;;;8.05;;
48203;SDS011;33994;50.998;5.864;2024-01-10T00:40:38;18.10;;;7.72;;
48203;SDS011;33994;50.998;5.864;2024-01-10T00:43:42;21.90;;;8.32;;
48203;SDS011;33994;50.998;5.864;2024-01-10T00:46:45;23.20;;;8.07;;
48203;SDS011;33994;50.998;5.864;2024-01-10T00:49:49;18.40;;;8.82;;
48203;SDS011;33994;50.998;5.864;2024-01-10T00:52:52;18.88;;;8.82;;
48203;SDS011;33994;50.998;5.864;2024-01-10T00:55:55;16.63;;;7.90;;
48203;SDS011;33994;50.998;5.864;2024-01-10T00:59:00;19.58;;;8.20;;
48203;SDS011;33994;50.998;5.864;2024-01-10T01:02:04;21.52;;;8.68;;
48203;SDS011;33994;50.998;5.864;2024-01-10T01:05:07;19.50;;;7.97;;
48203;SDS011;33994;50.998;5.864;2024-01-10T01:08:11;19.73;;;8.55;;
48203;SDS011;33994;50.998;5.864;2024-01-10T01:11:14;19.83;;;8.32;;
48203;SDS011;33994;50.998;5.864;2024-01-10T01:14:19;23.58;;;9.20;;
48203;SDS011;33994;50.998;5.864;2024-01-10T01:17:22;19.45;;;7.97;;
48203;SDS011;33994;50.998;5.864;2024-01-10T01:20:25;19.77;;;8.20;;
48203;SDS011;33994;50.998;5.864;2024-01-10T01:23:29;23.25;;;7.97;;
48203;SDS011;33994;50.998;5.864;2024-01-10T01:26:32;17.73;;;8.23;;
48203;SDS011;33994;50.998;5.864;2024-01-10T01:29:37;20.00;;;8.13;;
48203;SDS011;33994;50.998;5.864;2024-01-10T01:32:40;17.92;;;6.80;;
48203;SDS011;33994;50.998;5.864;2024-01-10T01:35:43;20.55;;;8.50;;
48203;SDS011;33994;50.998;5.864;2024-01-10T01:38:46;17.73;;;7.57;;
48203;SDS011;33994;50.998;5.864;2024-01-10T01:41:49;20.10;;;8.85;;
48203;SDS011;33994;50.998;5.864;2024-01-10T01:44:54;19.20;;;8.20;;
48203;SDS011;33994;50.998;5.864;2024-01-10T01:47:57;16.55;;;7.57;;
48203;SDS011;33994;50.998;5.864;2024-01-10T01:51:02;18.52;;;8.98;;
48203;SDS011;33994;50.998;5.864;2024-01-10T01:54:08;18.17;;;8.18;;
48203;SDS011;33994;50.998;5.864;2024-01-10T01:57:12;18.48;;;7.97;;
48203;SDS011;33994;50.998;5.864;2024-01-10T02:00:16;19.60;;;8.07;;
48203;SDS011;33994;50.998;5.864;2024-01-10T02:03:20;20.27;;;7.78;;
48203;SDS011;33994;50.998;5.864;2024-01-10T02:06:24;18.90;;;6.93;;
48203;SDS011;33994;50.998;5.864;2024-01-10T02:09:27;22.05;;;7.72;;
48203;SDS011;33994;50.998;5.864;2024-01-10T02:12:30;17.50;;;7.45;;
48203;SDS011;33994;50.998;5.864;2024-01-10T02:15:35;20.60;;;8.07;;
48203;SDS011;33994;50.998;5.864;2024-01-10T02:18:38;17.00;;;7.22;;
48203;SDS011;33994;50.998;5.864;2024-01-10T02:21:41;18.90;;;7.75;;
48203;SDS011;33994;50.998;5.864;2024-01-10T02:24:44;16.88;;;7.90;;
48203;SDS011;33994;50.998;5.864;2024-01-10T02:27:49;13.88;;;7.13;;
48203;SDS011;33994;50.998;5.864;2024-01-10T02:30:52;17.95;;;8.48;;
48203;SDS011;33994;50.998;5.864;2024-01-10T02:33:57;15.25;;;7.13;;
48203;SDS011;33994;50.998;5.864;2024-01-10T02:37:00;17.83;;;7.45;;
48203;SDS011;33994;50.998;5.864;2024-01-10T02:40:04;17.90;;;7.35;;
48203;SDS011;33994;50.998;5.864;2024-01-10T02:43:09;17.90;;;7.45;;
48203;SDS011;33994;50.998;5.864;2024-01-10T02:46:14;17.80;;;8.07;;
48203;SDS011;33994;50.998;5.864;2024-01-10T02:49:17;16.60;;;7.43;;
48203;SDS011;33994;50.998;5.864;2024-01-10T02:52:20;18.88;;;7.15;;
48203;SDS011;33994;50.998;5.864;2024-01-10T02:55:23;18.75;;;7.28;;
48203;SDS011;33994;50.998;5.864;2024-01-10T02:58:28;17.92;;;7.90;;
48203;SDS011;33994;50.998;5.864;2024-01-10T03:01:31;17.88;;;6.80;;
48203;SDS011;33994;50.998;5.864;2024-01-10T03:04:34;19.40;;;7.47;;
48203;SDS011;33994;50.998;5.864;2024-01-10T03:07:37;22.50;;;7.85;;
48203;SDS011;33994;50.998;5.864;2024-01-10T03:10:41;16.42;;;7.43;;
48203;SDS011;33994;50.998;5.864;2024-01-10T03:13:45;21.63;;;7.18;;
48203;SDS011;33994;50.998;5.864;2024-01-10T03:16:48;20.50;;;7.55;;
48203;SDS011;33994;50.998;5.864;2024-01-10T03:19:51;21.23;;;7.82;;
48203;SDS011;33994;50.998;5.864;2024-01-10T03:22:55;18.60;;;7.53;;
48203;SDS011;33994;50.998;5.864;2024-01-10T03:25:58;18.55;;;7.55;;
48203;SDS011;33994;50.998;5.864;2024-01-10T03:29:02;20.38;;;8.23;;
48203;SDS011;33994;50.998;5.864;2024-01-10T03:32:05;17.77;;;7.25;;
48203;SDS011;33994;50.998;5.864;2024-01-10T03:35:09;16.02;;;7.05;;
48203;SDS011;33994;50.998;5.864;2024-01-10T03:38:12;18.85;;;7.25;;
48203;SDS011;33994;50.998;5.864;2024-01-10T03:41:15;17.00;;;6.55;;
48203;SDS011;33994;50.998;5.864;2024-01-10T03:44:21;16.92;;;6.72;;
48203;SDS011;33994;50.998;5.864;2024-01-10T03:47:24;21.45;;;7.38;;
48203;SDS011;33994;50.998;5.864;2024-01-10T03:50:27;16.60;;;7.25;;
48203;SDS011;33994;50.998;5.864;2024-01-10T03:53:30;18.85;;;7.65;;
48203;SDS011;33994;50.998;5.864;2024-01-10T03:56:33;16.15;;;6.70;;
48203;SDS011;33994;50.998;5.864;2024-01-10T03:59:38;15.10;;;6.45;;
48203;SDS011;33994;50.998;5.864;2024-01-10T04:02:41;15.10;;;6.72;;
48203;SDS011;33994;50.998;5.864;2024-01-10T04:05:44;17.38;;;6.68;;
48203;SDS011;33994;50.998;5.864;2024-01-10T04:08:48;20.88;;;7.05;;
48203;SDS011;33994;50.998;5.864;2024-01-10T04:11:51;16.77;;;7.28;;
48203;SDS011;33994;50.998;5.864;2024-01-10T04:14:55;22.45;;;6.68;;
48203;SDS011;33994;50.998;5.864;2024-01-10T04:17:58;15.98;;;6.43;;
48203;SDS011;33994;50.998;5.864;2024-01-10T04:21:02;20.45;;;7.40;;
48203;SDS011;33994;50.998;5.864;2024-01-10T04:24:05;20.73;;;7.90;;
48203;SDS011;33994;50.998;5.864;2024-01-10T04:27:08;16.33;;;6.35;;
48203;SDS011;33994;50.998;5.864;2024-01-10T04:30:13;17.85;;;7.00;;
48203;SDS011;33994;50.998;5.864;2024-01-10T04:33:17;13.30;;;6.22;;
48203;SDS011;33994;50.998;5.864;2024-01-10T04:36:20;19.95;;;6.75;;
48203;SDS011;33994;50.998;5.864;2024-01-10T04:39:23;16.25;;;7.00;;
48203;SDS011;33994;50.998;5.864;2024-01-10T04:42:26;19.73;;;7.15;;
48203;SDS011;33994;50.998;5.864;2024-01-10T04:45:31;21.90;;;7.45;;
48203;SDS011;33994;50.998;5.864;2024-01-10T04:48:34;17.17;;;7.32;;
48203;SDS011;33994;50.998;5.864;2024-01-10T04:51:38;18.00;;;7.88;;
48203;SDS011;33994;50.998;5.864;2024-01-10T04:54:42;16.63;;;6.78;;
48203;SDS011;33994;50.998;5.864;2024-01-10T04:57:45;16.27;;;6.72;;
48203;SDS011;33994;50.998;5.864;2024-01-10T05:00:50;18.38;;;6.82;;
48203;SDS011;33994;50.998;5.864;2024-01-10T05:03:53;15.45;;;6.60;;
48203;SDS011;33994;50.998;5.864;2024-01-10T05:06:56;23.38;;;6.97;;
48203;SDS011;33994;50.998;5.864;2024-01-10T05:10:00;13.55;;;6.78;;
48203;SDS011;33994;50.998;5.864;2024-01-10T05:13:03;17.95;;;7.38;;
48203;SDS011;33994;50.998;5.864;2024-01-10T05:16:07;15.05;;;6.80;;
48203;SDS011;33994;50.998;5.864;2024-01-10T05:19:10;17.60;;;6.32;;
48203;SDS011;33994;50.998;5.864;2024-01-10T05:22:14;15.82;;;6.65;;
48203;SDS011;33994;50.998;5.864;2024-01-10T05:25:17;15.30;;;6.95;;
48203;SDS011;33994;50.998;5.864;2024-01-10T05:28:20;22.40;;;7.72;;
48203;SDS011;33994;50.998;5.864;2024-01-10T05:31:24;16.45;;;7.18;;
48203;SDS011;33994;50.998;5.864;2024-01-10T05:34:28;17.08;;;6.82;;
48203;SDS011;33994;50.998;5.864;2024-01-10T05:37:31;18.23;;;8.00;;
48203;SDS011;33994;50.998;5.864;2024-01-10T05:40:34;15.82;;;7.50;;
48203;SDS011;33994;50.998;5.864;2024-01-10T05:43:37;20.63;;;7.70;;
48203;SDS011;33994;50.998;5.864;2024-01-10T05:46:42;24.83;;;7.80;;
48203;SDS011;33994;50.998;5.864;2024-01-10T05:49:45;23.83;;;7.82;;
48203;SDS011;33994;50.998;5.864;2024-01-10T05:52:48;18.30;;;7.10;;
48203;SDS011;33994;50.998;5.864;2024-01-10T05:55:53;18.27;;;7.45;;
48203;SDS011;33994;50.998;5.864;2024-01-10T05:58:56;19.85;;;7.72;;
48203;SDS011;33994;50.998;5.864;2024-01-10T06:02:01;19.40;;;7.43;;
48203;SDS011;33994;50.998;5.864;2024-01-10T06:05:05;18.35;;;7.60;;
48203;SDS011;33994;50.998;5.864;2024-01-10T06:08:08;18.15;;;6.95;;
48203;SDS011;33994;50.998;5.864;2024-01-10T06:11:12;16.63;;;7.18;;
48203;SDS011;33994;50.998;5.864;2024-01-10T06:14:15;21.08;;;8.02;;
48203;SDS011;33994;50.998;5.864;2024-01-10T06:17:20;16.73;;;7.13;;
48203;SDS011;33994;50.998;5.864;2024-01-10T06:20:23;19.48;;;7.57;;
48203;SDS011;33994;50.998;5.864;2024-01-10T06:23:26;13.85;;;6.60;;
48203;SDS011;33994;50.998;5.864;2024-01-10T06:26:29;19.08;;;7.72;;
48203;SDS011;33994;50.998;5.864;2024-01-10T06:29:32;19.85;;;8.65;;
48203;SDS011;33994;50.998;5.864;2024-01-10T06:32:37;19.65;;;7.38;;
48203;SDS011;33994;50.998;5.864;2024-01-10T06:35:40;20.33;;;7.82;;
48203;SDS011;33994;50.998;5.864;2024-01-10T06:38:43;21.88;;;8.65;;
48203;SDS011;33994;50.998;5.864;2024-01-10T06:41:46;17.38;;;7.20;;
48203;SDS011;33994;50.998;5.864;2024-01-10T06:44:49;17.20;;;7.75;;
48203;SDS011;33994;50.998;5.864;2024-01-10T06:47:54;21.15;;;8.43;;
48203;SDS011;33994;50.998;5.864;2024-01-10T06:50:58;25.17;;;8.38;;
48203;SDS011;33994;50.998;5.864;2024-01-10T06:54:01;23.55;;;8.65;;
48203;SDS011;33994;50.998;5.864;2024-01-10T06:57:05;22.92;;;7.85;;
48203;SDS011;33994;50.998;5.864;2024-01-10T07:00:08;18.08;;;7.55;;
48203;SDS011;33994;50.998;5.864;2024-01-10T07:03:14;20.55;;;7.57;;
48203;SDS011;33994;50.998;5.864;2024-01-10T07:06:17;19.30;;;7.93;;
48203;SDS011;33994;50.998;5.864;2024-01-10T07:09:20;18.92;;;7.38;;
48203;SDS011;33994;50.998;5.864;2024-01-10T07:12:23;20.63;;;7.70;;
48203;SDS011;33994;50.998;5.864;2024-01-10T07:15:26;18.13;;;7.85;;
48203;SDS011;33994;50.998;5.864;2024-01-10T07:18:30;19.90;;;7.50;;
48203;SDS011;33994;50.998;5.864;2024-01-10T07:21:34;18.00;;;8.52;;
48203;SDS011;33994;50.998;5.864;2024-01-10T07:24:37;24.98;;;8.63;;
48203;SDS011;33994;50.998;5.864;2024-01-10T07:27:40;19.52;;;7.93;;
48203;SDS011;33994;50.998;5.864;2024-01-10T07:30:43;19.58;;;8.20;;
48203;SDS011;33994;50.998;5.864;2024-01-10T07:33:48;18.70;;;7.15;;
48203;SDS011;33994;50.998;5.864;2024-01-10T07:36:51;20.63;;;7.55;;
48203;SDS011;33994;50.998;5.864;2024-01-10T07:39:54;15.90;;;6.97;;
48203;SDS011;33994;50.998;5.864;2024-01-10T07:42:57;19.25;;;8.07;;
48203;SDS011;33994;50.998;5.864;2024-01-10T07:46:00;22.98;;;8.52;;
48203;SDS011;33994;50.998;5.864;2024-01-10T07:49:05;18.80;;;8.20;;
48203;SDS011;33994;50.998;5.864;2024-01-10T07:52:08;24.20;;;8.23;;
48203;SDS011;33994;50.998;5.864;2024-01-10T07:55:11;18.88;;;7.80;;
48203;SDS011;33994;50.998;5.864;2024-01-10T07:58:15;26.15;;;8.35;;
48203;SDS011;33994;50.998;5.864;2024-01-10T08:01:18;16.55;;;7.03;;
48203;SDS011;33994;50.998;5.864;2024-01-10T08:04:23;16.98;;;7.55;;
48203;SDS011;33994;50.998;5.864;2024-01-10T08:07:26;18.80;;;7.75;;
48203;SDS011;33994;50.998;5.864;2024-01-10T08:10:29;19.15;;;7.28;;
48203;SDS011;33994;50.998;5.864;2024-01-10T08:13:32;22.00;;;8.55;;
48203;SDS011;33994;50.998;5.864;2024-01-10T08:16:35;20.83;;;8.38;;
48203;SDS011;33994;50.998;5.864;2024-01-10T08:19:40;20.02;;;8.30;;
48203;SDS011;33994;50.998;5.864;2024-01-10T08:22:43;21.23;;;8.40;;
48203;SDS011;33994;50.998;5.864;2024-01-10T08:25:46;19.88;;;8.00;;
48203;SDS011;33994;50.998;5.864;2024-01-10T08:28:49;21.33;;;7.88;;
48203;SDS011;33994;50.998;5.864;2024-01-10T08:31:53;19.75;;;7.85;;
48203;SDS011;33994;50.998;5.864;2024-01-10T08:34:57;20.10;;;8.13;;
48203;SDS011;33994;50.998;5.864;2024-01-10T08:38:00;22.88;;;8.65;;
48203;SDS011;33994;50.998;5.864;2024-01-10T08:41:03;18.02;;;8.10;;
48203;SDS011;33994;50.998;5.864;2024-01-10T08:44:06;19.50;;;8.40;;
48203;SDS011;33994;50.998;5.864;2024-01-10T08:47:10;21.92;;;8.63;;
48203;SDS011;33994;50.998;5.864;2024-01-10T08:50:14;18.42;;;7.93;;
48203;SDS011;33994;50.998;5.864;2024-01-10T08:53:17;23.27;;;8.10;;
48203;SDS011;33994;50.998;5.864;2024-01-10T08:56:20;27.27;;;11.45;;
48203;SDS011;33994;50.998;5.864;2024-01-10T08:59:24;23.80;;;8.52;;
48203;SDS011;33994;50.998;5.864;2024-01-10T09:02:27;19.27;;;9.18;;
48203;SDS011;33994;50.998;5.864;2024-01-10T09:05:32;20.60;;;8.27;;
48203;SDS011;33994;50.998;5.864;2024-01-10T09:08:35;16.50;;;7.97;;
48203;SDS011;33994;50.998;5.864;2024-01-10T09:11:38;20.60;;;8.55;;
48203;SDS011;33994;50.998;5.864;2024-01-10T09:14:41;28.30;;;8.35;;
48203;SDS011;33994;50.998;5.864;2024-01-10T09:17:45;19.23;;;8.93;;
48203;SDS011;33994;50.998;5.864;2024-01-10T09:20:49;23.02;;;9.07;;
48203;SDS011;33994;50.998;5.864;2024-01-10T09:23:52;19.35;;;8.20;;
48203;SDS011;33994;50.998;5.864;2024-01-10T09:26:56;19.08;;;8.60;;
48203;SDS011;33994;50.998;5.864;2024-01-10T09:29:59;24.60;;;9.55;;
48203;SDS011;33994;50.998;5.864;2024-01-10T09:33:02;19.25;;;8.05;;
48203;SDS011;33994;50.998;5.864;2024-01-10T09:36:07;18.75;;;8.00;;
48203;SDS011;33994;50.998;5.864;2024-01-10T09:39:11;20.25;;;8.35;;
48203;SDS011;33994;50.998;5.864;2024-01-10T09:42:14;29.80;;;10.43;;
48203;SDS011;33994;50.998;5.864;2024-01-10T09:45:17;34.15;;;11.27;;
48203;SDS011;33994;50.998;5.864;2024-01-10T09:48:22;32.60;;;10.10;;
48203;SDS011;33994;50.998;5.864;2024-01-10T09:51:27;34.22;;;10.70;;
48203;SDS011;33994;50.998;5.864;2024-01-10T09:54:32;32.30;;;11.15;;
48203;SDS011;33994;50.998;5.864;2024-01-10T09:57:39;33.15;;;11.52;;
48203;SDS011;33994;50.998;5.864;2024-01-10T10:00:44;29.27;;;10.38;;
48203;SDS011;33994;50.998;5.864;2024-01-10T10:03:47;24.45;;;10.00;;
48203;SDS011;33994;50.998;5.864;2024-01-10T10:06:59;26.35;;;9.55;;
48203;SDS011;33994;50.998;5.864;2024-01-10T10:10:03;29.23;;;10.38;;
48203;SDS011;33994;50.998;5.864;2024-01-10T10:13:07;25.50;;;9.95;;
48203;SDS011;33994;50.998;5.864;2024-01-10T10:16:10;28.50;;;11.07;;
48203;SDS011;33994;50.998;5.864;2024-01-10T10:19:13;28.67;;;11.00;;
48203;SDS011;33994;50.998;5.864;2024-01-10T10:22:27;21.60;;;9.85;;
48203;SDS011;33994;50.998;5.864;2024-01-10T10:25:31;29.48;;;10.80;;
48203;SDS011;33994;50.998;5.864;2024-01-10T10:28:35;26.67;;;10.82;;
48203;SDS011;33994;50.998;5.864;2024-01-10T10:31:38;26.75;;;9.38;;
48203;SDS011;33994;50.998;5.864;2024-01-10T10:34:41;25.98;;;9.75;;
48203;SDS011;33994;50.998;5.864;2024-01-10T10:37:46;23.88;;;9.63;;
48203;SDS011;33994;50.998;5.864;2024-01-10T10:40:50;22.00;;;8.75;;
48203;SDS011;33994;50.998;5.864;2024-01-10T10:43:53;28.08;;;9.77;;
48203;SDS011;33994;50.998;5.864;2024-01-10T10:46:58;26.40;;;10.18;;
48203;SDS011;33994;50.998;5.864;2024-01-10T10:50:07;22.02;;;9.07;;
48203;SDS011;33994;50.998;5.864;2024-01-10T10:53:16;24.95;;;9.95;;
48203;SDS011;33994;50.998;5.864;2024-01-10T10:56:21;23.17;;;9.83;;
48203;SDS011;33994;50.998;5.864;2024-01-10T10:59:26;24.63;;;10.48;;
48203;SDS011;33994;50.998;5.864;2024-01-10T11:02:31;24.30;;;9.98;;
48203;SDS011;33994;50.998;5.864;2024-01-10T11:05:34;20.48;;;9.15;;
48203;SDS011;33994;50.998;5.864;2024-01-10T11:08:46;26.67;;;8.88;;
48203;SDS011;33994;50.998;5.864;2024-01-10T11:12:05;28.08;;;10.68;;
48203;SDS011;33994;50.998;5.864;2024-01-10T11:18:40;28.38;;;11.25;;
48203;SDS011;33994;50.998;5.864;2024-01-10T11:22:00;27.02;;;9.18;;
48203;SDS011;33994;50.998;5.864;2024-01-10T11:25:14;29.50;;;10.02;;
48203;SDS011;33994;50.998;5.864;2024-01-10T11:28:17;24.98;;;9.95;;
48203;SDS011;33994;50.998;5.864;2024-01-10T11:31:27;33.70;;;11.02;;
48203;SDS011;33994;50.998;5.864;2024-01-10T11:34:31;26.52;;;9.93;;
48203;SDS011;33994;50.998;5.864;2024-01-10T11:37:38;26.58;;;10.52;;
48203;SDS011;33994;50.998;5.864;2024-01-10T11:40:49;26.08;;;9.80;;
48203;SDS011;33994;50.998;5.864;2024-01-10T11:47:28;24.23;;;9.93;;
48203;SDS011;33994;50.998;5.864;2024-01-10T11:50:31;25.58;;;10.35;;
48203;SDS011;33994;50.998;5.864;2024-01-10T11:53:38;32.03;;;10.85;;
48203;SDS011;33994;50.998;5.864;2024-01-10T11:56:46;36.42;;;14.40;;
48203;SDS011;33994;50.998;5.864;2024-01-10T11:59:50;31.20;;;10.40;;
48203;SDS011;33994;50.998;5.864;2024-01-10T12:02:55;26.60;;;10.45;;
48203;SDS011;33994;50.998;5.864;2024-01-10T12:05:58;31.55;;;10.88;;
48203;SDS011;33994;50.998;5.864;2024-01-10T12:09:02;25.67;;;10.80;;
48203;SDS011;33994;50.998;5.864;2024-01-10T12:12:07;29.55;;;10.57;;
48203;SDS011;33994;50.998;5.864;2024-01-10T12:15:10;26.88;;;10.95;;
48203;SDS011;33994;50.998;5.864;2024-01-10T12:18:13;26.88;;;11.15;;
48203;SDS011;33994;50.998;5.864;2024-01-10T12:21:16;24.83;;;11.43;;
48203;SDS011;33994;50.998;5.864;2024-01-10T12:24:20;33.97;;;11.82;;
48203;SDS011;33994;50.998;5.864;2024-01-10T12:27:24;27.50;;;10.70;;
48203;SDS011;33994;50.998;5.864;2024-01-10T12:30:27;31.67;;;12.15;;
48203;SDS011;33994;50.998;5.864;2024-01-10T12:33:30;31.70;;;11.85;;
48203;SDS011;33994;50.998;5.864;2024-01-10T12:36:34;28.13;;;11.57;;
48203;SDS011;33994;50.998;5.864;2024-01-10T12:39:37;29.00;;;11.57;;
48203;SDS011;33994;50.998;5.864;2024-01-10T12:42:42;27.90;;;11.38;;
48203;SDS011;33994;50.998;5.864;2024-01-10T12:45:45;27.50;;;11.63;;
48203;SDS011;33994;50.998;5.864;2024-01-10T12:48:57;27.23;;;10.85;;
48203;SDS011;33994;50.998;5.864;2024-01-10T12:52:01;36.13;;;10.63;;
48203;SDS011;33994;50.998;5.864;2024-01-10T12:55:05;31.42;;;12.20;;
48203;SDS011;33994;50.998;5.864;2024-01-10T12:58:10;28.88;;;11.00;;
48203;SDS011;33994;50.998;5.864;2024-01-10T13:01:13;24.80;;;10.43;;
48203;SDS011;33994;50.998;5.864;2024-01-10T13:04:17;28.98;;;11.57;;
48203;SDS011;33994;50.998;5.864;2024-01-10T13:07:20;31.27;;;11.63;;
48203;SDS011;33994;50.998;5.864;2024-01-10T13:10:23;28.00;;;11.30;;
48203;SDS011;33994;50.998;5.864;2024-01-10T13:13:28;29.85;;;11.25;;
48203;SDS011;33994;50.998;5.864;2024-01-10T13:16:30;28.20;;;11.23;;
48203;SDS011;33994;50.998;5.864;2024-01-10T13:19:34;27.75;;;11.43;;
48203;SDS011;33994;50.998;5.864;2024-01-10T13:22:37;28.98;;;11.98;;
48203;SDS011;33994;50.998;5.864;2024-01-10T13:25:40;29.13;;;11.60;;
48203;SDS011;33994;50.998;5.864;2024-01-10T13:28:45;26.95;;;11.32;;
48203;SDS011;33994;50.998;5.864;2024-01-10T13:31:48;25.52;;;11.98;;
48203;SDS011;33994;50.998;5.864;2024-01-10T13:34:51;30.42;;;11.82;;
48203;SDS011;33994;50.998;5.864;2024-01-10T13:37:54;29.63;;;11.88;;
48203;SDS011;33994;50.998;5.864;2024-01-10T13:40:57;37.08;;;11.32;;
48203;SDS011;33994;50.998;5.864;2024-01-10T13:44:02;27.85;;;11.85;;
48203;SDS011;33994;50.998;5.864;2024-01-10T13:47:06;34.42;;;12.93;;
48203;SDS011;33994;50.998;5.864;2024-01-10T13:50:09;27.60;;;10.80;;
48203;SDS011;33994;50.998;5.864;2024-01-10T13:53:12;25.98;;;10.55;;
48203;SDS011;33994;50.998;5.864;2024-01-10T13:56:15;38.63;;;11.32;;
48203;SDS011;33994;50.998;5.864;2024-01-10T13:59:20;29.48;;;12.48;;
48203;SDS011;33994;50.998;5.864;2024-01-10T14:02:23;30.58;;;11.60;;
48203;SDS011;33994;50.998;5.864;2024-01-10T14:05:27;30.05;;;11.82;;
48203;SDS011;33994;50.998;5.864;2024-01-10T14:08:30;30.98;;;11.73;;
48203;SDS011;33994;50.998;5.864;2024-01-10T14:11:34;29.05;;;12.00;;
48203;SDS011;33994;50.998;5.864;2024-01-10T14:14:38;26.75;;;12.10;;
48203;SDS011;33994;50.998;5.864;2024-01-10T14:17:41;27.60;;;11.23;;
48203;SDS011;33994;50.998;5.864;2024-01-10T14:20:44;29.15;;;11.30;;
48203;SDS011;33994;50.998;5.864;2024-01-10T14:23:48;28.05;;;11.82;;
48203;SDS011;33994;50.998;5.864;2024-01-10T14:26:51;29.77;;;12.43;;
48203;SDS011;33994;50.998;5.864;2024-01-10T14:29:56;35.17;;;13.10;;
48203;SDS011;33994;50.998;5.864;2024-01-10T14:32:59;27.48;;;11.00;;
48203;SDS011;33994;50.998;5.864;2024-01-10T14:36:03;29.65;;;12.05;;
48203;SDS011;33994;50.998;5.864;2024-01-10T14:39:06;27.27;;;12.02;;
48203;SDS011;33994;50.998;5.864;2024-01-10T14:42:09;34.40;;;12.23;;
48203;SDS011;33994;50.998;5.864;2024-01-10T14:45:13;32.17;;;12.43;;
48203;SDS011;33994;50.998;5.864;2024-01-10T14:48:16;29.27;;;12.80;;
48203;SDS011;33994;50.998;5.864;2024-01-10T14:51:19;27.95;;;11.98;;
48203;SDS011;33994;50.998;5.864;2024-01-10T14:54:23;31.92;;;13.13;;
48203;SDS011;33994;50.998;5.864;2024-01-10T14:57:26;26.98;;;11.68;;
48203;SDS011;33994;50.998;5.864;2024-01-10T15:00:30;30.13;;;13.27;;
48203;SDS011;33994;50.998;5.864;2024-01-10T15:03:33;32.10;;;12.85;;
48203;SDS011;33994;50.998;5.864;2024-01-10T15:06:43;32.83;;;12.85;;
48203;SDS011;33994;50.998;5.864;2024-01-10T15:09:47;31.33;;;13.25;;
48203;SDS011;33994;50.998;5.864;2024-01-10T15:12:50;32.13;;;13.15;;
48203;SDS011;33994;50.998;5.864;2024-01-10T15:15:54;30.30;;;11.57;;
48203;SDS011;33994;50.998;5.864;2024-01-10T15:18:57;36.45;;;13.23;;
48203;SDS011;33994;50.998;5.864;2024-01-10T15:22:00;28.48;;;12.38;;
48203;SDS011;33994;50.998;5.864;2024-01-10T15:25:04;30.25;;;12.73;;
48203;SDS011;33994;50.998;5.864;2024-01-10T15:28:08;30.65;;;12.52;;
48203;SDS011;33994;50.998;5.864;2024-01-10T15:31:15;31.75;;;13.70;;
48203;SDS011;33994;50.998;5.864;2024-01-10T15:34:18;33.42;;;13.77;;
48203;SDS011;33994;50.998;5.864;2024-01-10T15:37:21;32.25;;;13.20;;
48203;SDS011;33994;50.998;5.864;2024-01-10T15:40:25;34.13;;;13.70;;
48203;SDS011;33994;50.998;5.864;2024-01-10T15:43:28;35.92;;;13.75;;
48203;SDS011;33994;50.998;5.864;2024-01-10T15:46:33;39.15;;;14.45;;
48203;SDS011;33994;50.998;5.864;2024-01-10T15:49:36;30.25;;;13.02;;
48203;SDS011;33994;50.998;5.864;2024-01-10T15:52:39;36.05;;;13.55;;
48203;SDS011;33994;50.998;5.864;2024-01-10T15:55:42;31.67;;;12.82;;
48203;SDS011;33994;50.998;5.864;2024-01-10T15:58:45;31.23;;;13.07;;
48203;SDS011;33994;50.998;5.864;2024-01-10T16:01:50;30.02;;;12.80;;
48203;SDS011;33994;50.998;5.864;2024-01-10T16:04:53;43.08;;;13.15;;
48203;SDS011;33994;50.998;5.864;2024-01-10T16:07:57;29.02;;;13.35;;
48203;SDS011;33994;50.998;5.864;2024-01-10T16:11:01;31.65;;;12.98;;
48203;SDS011;33994;50.998;5.864;2024-01-10T16:14:04;35.38;;;12.85;;
48203;SDS011;33994;50.998;5.864;2024-01-10T16:17:09;31.50;;;12.30;;
48203;SDS011;33994;50.998;5.864;2024-01-10T16:20:12;34.30;;;13.80;;
48203;SDS011;33994;50.998;5.864;2024-01-10T16:23:16;35.00;;;13.82;;
48203;SDS011;33994;50.998;5.864;2024-01-10T16:26:19;36.17;;;14.18;;
48203;SDS011;33994;50.998;5.864;2024-01-10T16:29:22;30.65;;;13.70;;
48203;SDS011;33994;50.998;5.864;2024-01-10T16:32:27;35.47;;;14.75;;
48203;SDS011;33994;50.998;5.864;2024-01-10T16:35:30;33.15;;;13.88;;
48203;SDS011;33994;50.998;5.864;2024-01-10T16:38:33;39.13;;;14.15;;
48203;SDS011;33994;50.998;5.864;2024-01-10T16:41:36;33.03;;;14.73;;
48203;SDS011;33994;50.998;5.864;2024-01-10T16:44:39;33.58;;;15.23;;
48203;SDS011;33994;50.998;5.864;2024-01-10T16:47:44;31.65;;;13.75;;
48203;SDS011;33994;50.998;5.864;2024-01-10T16:50:47;31.13;;;13.57;;
48203;SDS011;33994;50.998;5.864;2024-01-10T16:53:50;35.03;;;14.68;;
48203;SDS011;33994;50.998;5.864;2024-01-10T16:56:54;31.75;;;13.60;;
48203;SDS011;33994;50.998;5.864;2024-01-10T16:59:57;39.78;;;14.15;;
48203;SDS011;33994;50.998;5.864;2024-01-10T17:03:01;34.30;;;13.85;;
48203;SDS011;33994;50.998;5.864;2024-01-10T17:06:05;36.35;;;14.63;;
48203;SDS011;33994;50.998;5.864;2024-01-10T17:09:08;35.17;;;14.18;;
48203;SDS011;33994;50.998;5.864;2024-01-10T17:12:11;33.60;;;13.95;;
48203;SDS011;33994;50.998;5.864;2024-01-10T17:15:14;41.05;;;15.85;;
48203;SDS011;33994;50.998;5.864;2024-01-10T17:18:19;33.22;;;13.48;;
48203;SDS011;33994;50.998;5.864;2024-01-10T17:21:22;35.90;;;14.43;;
48203;SDS011;33994;50.998;5.864;2024-01-10T17:24:25;36.65;;;13.90;;
48203;SDS011;33994;50.998;5.864;2024-01-10T17:27:28;30.65;;;13.50;;
48203;SDS011;33994;50.998;5.864;2024-01-10T17:30:31;33.90;;;14.07;;
48203;SDS011;33994;50.998;5.864;2024-01-10T17:33:36;40.13;;;15.05;;
48203;SDS011;33994;50.998;5.864;2024-01-10T17:36:39;37.40;;;15.68;;
48203;SDS011;33994;50.998;5.864;2024-01-10T17:39:42;32.70;;;13.55;;
48203;SDS011;33994;50.998;5.864;2024-01-10T17:42:45;41.22;;;14.65;;
48203;SDS011;33994;50.998;5.864;2024-01-10T17:45:49;33.90;;;14.98;;
48203;SDS011;33994;50.998;5.864;2024-01-10T17:48:53;39.90;;;16.88;;
48203;SDS011;33994;50.998;5.864;2024-01-10T17:51:56;39.28;;;15.63;;
48203;SDS011;33994;50.998;5.864;2024-01-10T17:54:59;37.17;;;14.07;;
48203;SDS011;33994;50.998;5.864;2024-01-10T17:58:03;37.08;;;15.30;;
48203;SDS011;33994;50.998;5.864;2024-01-10T18:01:06;33.75;;;15.23;;
48203;SDS011;33994;50.998;5.864;2024-01-10T18:04:11;33.42;;;14.05;;
48203;SDS011;33994;50.998;5.864;2024-01-10T18:07:14;40.38;;;15.07;;
48203;SDS011;33994;50.998;5.864;2024-01-10T18:10:17;35.97;;;15.23;;